Time;durP1;ratioP1;P1;durP2;ratioP2;P2;SDS_P1;SDS_P2;PMS_P1;PMS_P2;Temp;Humidity;BMP_temperature;BMP_pressure;BME280_temperature;BME280_humidity;BME280_pressure;Samples;Min_cycle;Max_cycle;Signal;HPM_P1;HPM_P2
2023/06/13 00:01:03;;;;;;;4.53;4.10;;;;;;;;;;5083620;28;20208;-70
2023/06/13 00:03:29;;;;;;;4.10;3.72;;;;;;;;;;5083633;28;20196;-70
2023/06/13 00:06:01;;;;;;;4.20;3.90;;;;;;;;;;5083620;28;20257;-70
2023/06/13 00:08:27;;;;;;;4.30;4.00;;;;;;;;;;5083096;28;20231;-70
2023/06/13 00:10:53;;;;;;;4.63;4.22;;;;;;;;;;5083295;28;20207;-70
2023/06/13 00:13:20;;;;;;;4.07;3.78;;;;;;;;;;5083561;28;20200;-70
2023/06/13 00:15:50;;;;;;;5.03;3.85;;;;;;;;;;5083332;28;20220;-70
2023/06/13 00:18:17;;;;;;;5.68;4.07;;;;;;;;;;5083086;28;20227;-70
2023/06/13 00:20:44;;;;;;;4.47;4.15;;;;;;;;;;5082984;28;20283;-70
2023/06/13 00:23:12;;;;;;;4.05;3.65;;;;;;;;;;5083085;28;20566;-70
2023/06/13 00:25:38;;;;;;;5.35;3.58;;;;;;;;;;5083026;28;20259;-70
2023/06/13 00:28:04;;;;;;;5.47;3.63;;;;;;;;;;5082747;28;20289;-70
2023/06/13 00:30:31;;;;;;;4.22;3.75;;;;;;;;;;5083208;28;20222;-70
2023/06/13 00:32:59;;;;;;;3.85;3.65;;;;;;;;;;5083047;28;20207;-70
2023/06/13 00:35:25;;;;;;;4.25;3.95;;;;;;;;;;5082667;28;20216;-70
2023/06/13 00:37:54;;;;;;;4.32;3.78;;;;;;;;;;5082420;28;20208;-70
2023/06/13 00:40:21;;;;;;;3.67;3.35;;;;;;;;;;5082898;28;20200;-70
2023/06/13 00:42:47;;;;;;;4.35;3.55;;;;;;;;;;5082728;28;20388;-70
2023/06/13 00:45:18;;;;;;;6.15;3.47;;;;;;;;;;5082601;28;20519;-70
2023/06/13 00:47:45;;;;;;;3.45;3.17;;;;;;;;;;5082617;28;20209;-70
2023/06/13 00:50:12;;;;;;;4.78;3.33;;;;;;;;;;5082512;28;20508;-70
2023/06/13 00:52:39;;;;;;;7.75;3.30;;;;;;;;;;5082465;28;20197;-70
2023/06/13 00:55:05;;;;;;;3.83;3.40;;;;;;;;;;5082191;28;20235;-70
2023/06/13 00:57:33;;;;;;;3.95;3.47;;;;;;;;;;5082393;28;20393;-70
2023/06/13 01:00:00;;;;;;;3.53;3.25;;;;;;;;;;5082457;28;20205;-70
2023/06/13 01:02:27;;;;;;;3.40;3.20;;;;;;;;;;5082307;28;20196;-70
2023/06/13 01:04:54;;;;;;;3.63;3.28;;;;;;;;;;5081790;28;20203;-70
2023/06/13 01:07:20;;;;;;;4.28;2.97;;;;;;;;;;5081882;28;20211;-70
2023/06/13 01:09:47;;;;;;;3.55;3.25;;;;;;;;;;5082286;28;20204;-70
2023/06/13 01:12:17;;;;;;;5.50;3.53;;;;;;;;;;5082589;28;20238;-70
2023/06/13 01:14:48;;;;;;;3.35;3.20;;;;;;;;;;5082003;28;20373;-70
2023/06/13 01:17:15;;;;;;;3.63;3.33;;;;;;;;;;5081591;28;20201;-70
2023/06/13 01:19:43;;;;;;;7.75;3.38;;;;;;;;;;5082032;28;20258;-70
2023/06/13 01:22:11;;;;;;;4.45;2.95;;;;;;;;;;5081959;28;20223;-70
2023/06/13 01:24:40;;;;;;;3.92;3.60;;;;;;;;;;5082014;28;20496;-70
2023/06/13 01:27:10;;;;;;;4.75;3.30;;;;;;;;;;5081580;28;20274;-70
2023/06/13 01:29:37;;;;;;;3.90;3.30;;;;;;;;;;5081904;28;20214;-70
2023/06/13 01:32:05;;;;;;;3.47;3.00;;;;;;;;;;5081757;28;20212;-70
2023/06/13 01:34:31;;;;;;;3.85;2.80;;;;;;;;;;5073700;28;20200;-71
2023/06/13 01:36:58;;;;;;;3.70;3.40;;;;;;;;;;5081629;28;20495;-70
2023/06/13 01:39:24;;;;;;;7.38;3.03;;;;;;;;;;5081937;28;20208;-70
2023/06/13 01:41:51;;;;;;;3.03;2.83;;;;;;;;;;5081733;28;20200;-70
2023/06/13 01:44:19;;;;;;;3.75;3.20;;;;;;;;;;5082003;28;20280;-70
2023/06/13 01:46:51;;;;;;;3.17;2.85;;;;;;;;;;5081800;28;20201;-70
2023/06/13 01:49:20;;;;;;;3.10;2.88;;;;;;;;;;5081711;28;20200;-70
2023/06/13 01:51:51;;;;;;;6.35;3.05;;;;;;;;;;5082064;28;20200;-70
2023/06/13 01:54:20;;;;;;;4.10;3.10;;;;;;;;;;5084994;28;20212;-70
2023/06/13 01:56:48;;;;;;;3.75;2.80;;;;;;;;;;5085528;28;20557;-70
2023/06/13 01:59:15;;;;;;;3.20;3.00;;;;;;;;;;5085745;28;20508;-70
2023/06/13 02:01:43;;;;;;;2.90;2.70;;;;;;;;;;5085857;28;20200;-70
2023/06/13 02:04:10;;;;;;;3.03;2.83;;;;;;;;;;5085733;28;20456;-70
2023/06/13 02:06:36;;;;;;;3.03;2.83;;;;;;;;;;5085375;28;20422;-70
2023/06/13 02:09:04;;;;;;;3.00;2.72;;;;;;;;;;5085239;28;20226;-70
2023/06/13 02:11:30;;;;;;;4.70;2.97;;;;;;;;;;5085697;28;20204;-70
2023/06/13 02:13:57;;;;;;;4.75;2.75;;;;;;;;;;5085446;28;20200;-70
2023/06/13 02:16:25;;;;;;;2.80;2.60;;;;;;;;;;5085280;28;20228;-70
2023/06/13 02:18:53;;;;;;;3.38;2.92;;;;;;;;;;5085320;28;20200;-70
2023/06/13 02:21:19;;;;;;;3.25;2.95;;;;;;;;;;5085245;28;20254;-70
2023/06/13 02:23:46;;;;;;;3.00;2.55;;;;;;;;;;5085220;28;20200;-70
2023/06/13 02:26:13;;;;;;;3.30;3.15;;;;;;;;;;5085372;28;20476;-70
2023/06/13 02:28:39;;;;;;;3.95;2.67;;;;;;;;;;5085130;28;20220;-70
2023/06/13 02:31:05;;;;;;;3.05;2.85;;;;;;;;;;5085047;28;20200;-70
2023/06/13 02:33:32;;;;;;;3.15;2.80;;;;;;;;;;5085013;28;20256;-70
2023/06/13 02:35:59;;;;;;;3.28;2.83;;;;;;;;;;5085285;28;20216;-70
2023/06/13 02:38:25;;;;;;;5.82;2.70;;;;;;;;;;5084592;28;20220;-70
2023/06/13 02:40:53;;;;;;;3.78;2.88;;;;;;;;;;5084973;28;20208;-70
2023/06/13 02:43:19;;;;;;;2.90;2.70;;;;;;;;;;5084883;28;20215;-70
2023/06/13 02:45:45;;;;;;;3.28;2.65;;;;;;;;;;5084879;28;20520;-70
2023/06/13 02:48:12;;;;;;;4.65;2.70;;;;;;;;;;5084660;28;20516;-70
2023/06/13 02:50:38;;;;;;;4.70;2.83;;;;;;;;;;5084695;28;20263;-70
2023/06/13 02:53:06;;;;;;;2.60;2.50;;;;;;;;;;5084618;28;20200;-70
2023/06/13 02:55:32;;;;;;;3.55;3.30;;;;;;;;;;5084864;28;20552;-70
2023/06/13 02:57:58;;;;;;;3.28;2.75;;;;;;;;;;5084605;28;20209;-70
2023/06/13 03:00:24;;;;;;;4.72;2.67;;;;;;;;;;5084588;28;20200;-70
2023/06/13 03:02:51;;;;;;;3.25;2.95;;;;;;;;;;5084616;28;20204;-70
2023/06/13 03:05:17;;;;;;;4.32;2.95;;;;;;;;;;5084175;28;20200;-70
2023/06/13 03:07:46;;;;;;;5.22;3.33;;;;;;;;;;5084223;28;20565;-70
2023/06/13 03:10:14;;;;;;;3.17;2.88;;;;;;;;;;5084610;28;20208;-70
2023/06/13 03:12:41;;;;;;;3.10;2.90;;;;;;;;;;5084511;28;20267;-70
2023/06/13 03:15:08;;;;;;;3.75;3.35;;;;;;;;;;5084494;28;20238;-70
2023/06/13 03:17:34;;;;;;;3.22;3.03;;;;;;;;;;5083909;28;20217;-70
2023/06/13 03:20:00;;;;;;;3.63;3.25;;;;;;;;;;5084191;28;20212;-70
2023/06/13 03:22:27;;;;;;;3.50;3.20;;;;;;;;;;5084307;28;20208;-70
2023/06/13 03:24:53;;;;;;;4.22;3.40;;;;;;;;;;5084318;28;20204;-70
2023/06/13 03:27:21;;;;;;;3.20;2.90;;;;;;;;;;5083846;28;20232;-70
2023/06/13 03:29:47;;;;;;;2.90;2.80;;;;;;;;;;5084144;28;20422;-70
2023/06/13 03:32:13;;;;;;;3.33;3.13;;;;;;;;;;5083960;28;20428;-70
2023/06/13 03:34:40;;;;;;;3.47;3.13;;;;;;;;;;5083858;28;20197;-70
2023/06/13 03:37:07;;;;;;;3.80;3.00;;;;;;;;;;5083787;28;20262;-70
2023/06/13 03:39:33;;;;;;;3.60;3.40;;;;;;;;;;5084010;28;20530;-70
2023/06/13 03:42:00;;;;;;;3.75;2.90;;;;;;;;;;5083980;28;20207;-70
2023/06/13 03:44:27;;;;;;;2.97;2.80;;;;;;;;;;5083680;28;20200;-70
2023/06/13 03:46:54;;;;;;;3.15;2.63;;;;;;;;;;5083517;28;20242;-70
2023/06/13 03:49:20;;;;;;;3.80;2.60;;;;;;;;;;5083671;28;20258;-70
2023/06/13 03:51:47;;;;;;;3.05;2.85;;;;;;;;;;5083793;28;20207;-70
2023/06/13 03:54:13;;;;;;;3.10;2.88;;;;;;;;;;5083750;28;20205;-70
2023/06/13 03:56:39;;;;;;;3.28;2.92;;;;;;;;;;5075217;28;20223;-70
2023/06/13 03:59:05;;;;;;;3.42;2.95;;;;;;;;;;5083462;28;20210;-70
2023/06/13 04:01:34;;;;;;;3.10;2.80;;;;;;;;;;5083268;28;20216;-70
2023/06/13 04:04:00;;;;;;;4.88;2.90;;;;;;;;;;5083701;28;20201;-70
2023/06/13 04:06:28;;;;;;;3.38;3.15;;;;;;;;;;5083427;28;20201;-70
2023/06/13 04:08:54;;;;;;;2.60;2.50;;;;;;;;;;5083075;28;20204;-70
2023/06/13 04:11:21;;;;;;;2.40;2.30;;;;;;;;;;5083386;28;20431;-70
2023/06/13 04:13:47;;;;;;;3.28;2.72;;;;;;;;;;5083246;28;20200;-70
2023/06/13 04:16:13;;;;;;;4.07;2.60;;;;;;;;;;5082982;28;20531;-72
2023/06/13 04:18:43;;;;;;;6.35;2.85;;;;;;;;;;5074983;28;20622;-72
2023/06/13 04:21:09;;;;;;;3.10;2.90;;;;;;;;;;5083146;28;20215;-72
2023/06/13 04:23:35;;;;;;;3.58;2.75;;;;;;;;;;5082951;28;20211;-72
2023/06/13 04:26:03;;;;;;;5.53;3.00;;;;;;;;;;5083228;28;20196;-72
2023/06/13 04:28:29;;;;;;;3.63;3.20;;;;;;;;;;5082946;28;20585;-72
2023/06/13 04:30:56;;;;;;;3.53;2.75;;;;;;;;;;5083074;28;20226;-72
2023/06/13 04:33:24;;;;;;;4.07;3.33;;;;;;;;;;5083328;28;20530;-72
2023/06/13 04:35:53;;;;;;;4.82;3.00;;;;;;;;;;5083144;28;20228;-72
2023/06/13 04:38:21;;;;;;;3.08;2.55;;;;;;;;;;5082928;28;20515;-72
2023/06/13 04:40:47;;;;;;;3.97;2.67;;;;;;;;;;5083207;28;20401;-72
2023/06/13 04:43:14;;;;;;;3.15;2.92;;;;;;;;;;5082659;28;20476;-72
2023/06/13 04:45:41;;;;;;;3.33;3.13;;;;;;;;;;5082727;28;20224;-72
2023/06/13 04:48:09;;;;;;;5.30;3.58;;;;;;;;;;5082703;28;20232;-72
2023/06/13 04:50:37;;;;;;;3.30;3.00;;;;;;;;;;5082797;28;20508;-72
2023/06/13 04:53:07;;;;;;;3.13;2.80;;;;;;;;;;5082677;28;20248;-72
2023/06/13 04:55:35;;;;;;;6.72;2.83;;;;;;;;;;5082233;28;20212;-72
2023/06/13 04:58:01;;;;;;;3.28;3.00;;;;;;;;;;5082714;28;20258;-72
2023/06/13 05:00:27;;;;;;;4.72;2.80;;;;;;;;;;5082313;28;20224;-72
2023/06/13 05:02:55;;;;;;;5.78;2.63;;;;;;;;;;5083019;28;20531;-72
2023/06/13 05:05:22;;;;;;;2.88;2.53;;;;;;;;;;5082312;28;20207;-72
2023/06/13 05:07:49;;;;;;;2.92;2.75;;;;;;;;;;5082260;28;20411;-72
2023/06/13 05:10:16;;;;;;;2.50;2.40;;;;;;;;;;5082263;28;20200;-72
2023/06/13 05:12:43;;;;;;;2.88;2.53;;;;;;;;;;5082479;28;20220;-72
2023/06/13 05:15:09;;;;;;;3.15;2.10;;;;;;;;;;5082690;28;20214;-72
2023/06/13 05:17:37;;;;;;;2.58;2.30;;;;;;;;;;5082331;28;20238;-72
2023/06/13 05:20:04;;;;;;;2.78;2.58;;;;;;;;;;5082436;28;20279;-72
2023/06/13 05:22:32;;;;;;;2.47;2.38;;;;;;;;;;5081929;28;20242;-72
2023/06/13 05:24:59;;;;;;;6.55;2.40;;;;;;;;;;5082088;28;20207;-72
2023/06/13 05:27:27;;;;;;;2.95;2.30;;;;;;;;;;5081008;28;20251;-72
2023/06/13 05:29:53;;;;;;;2.50;2.40;;;;;;;;;;5082371;28;20458;-72
2023/06/13 05:32:19;;;;;;;3.17;2.10;;;;;;;;;;5081974;28;20206;-72
2023/06/13 05:34:46;;;;;;;7.35;2.45;;;;;;;;;;5082154;28;20206;-72
2023/06/13 05:37:12;;;;;;;3.17;2.28;;;;;;;;;;5082008;28;20262;-72
2023/06/13 05:39:39;;;;;;;2.13;2.05;;;;;;;;;;5082346;28;20208;-72
2023/06/13 05:42:06;;;;;;;4.88;2.10;;;;;;;;;;5082194;28;20508;-72
2023/06/13 05:44:33;;;;;;;3.17;2.55;;;;;;;;;;5081790;28;20274;-72
2023/06/13 05:46:59;;;;;;;2.17;2.08;;;;;;;;;;5081772;28;20304;-72
2023/06/13 05:49:26;;;;;;;3.00;2.58;;;;;;;;;;5081895;28;20200;-72
2023/06/13 05:51:53;;;;;;;2.33;2.15;;;;;;;;;;5081775;28;20209;-72
2023/06/13 05:54:19;;;;;;;2.58;2.00;;;;;;;;;;5077152;28;20208;-57
2023/06/13 05:56:45;;;;;;;2.78;2.08;;;;;;;;;;5074856;28;20239;-57
2023/06/13 05:59:14;;;;;;;2.55;2.08;;;;;;;;;;5076370;28;20220;-58
2023/06/13 06:01:42;;;;;;;2.67;2.38;;;;;;;;;;5073887;28;20556;-57
2023/06/13 06:04:08;;;;;;;3.65;2.50;;;;;;;;;;5076497;28;20220;-57
2023/06/13 06:06:35;;;;;;;4.57;2.60;;;;;;;;;;5076330;28;20208;-57
2023/06/13 06:09:02;;;;;;;2.65;2.45;;;;;;;;;;5072478;28;20409;-57
2023/06/13 06:11:28;;;;;;;2.60;2.28;;;;;;;;;;5072621;28;20204;-57
2023/06/13 06:13:55;;;;;;;5.93;4.72;;;;;;;;;;5073586;28;20409;-57
2023/06/13 06:16:21;;;;;;;3.03;2.42;;;;;;;;;;5073636;28;20246;-57
2023/06/13 06:18:50;;;;;;;7.28;2.47;;;;;;;;;;5073759;28;20212;-57
2023/06/13 06:21:16;;;;;;;2.42;2.22;;;;;;;;;;5073626;28;20217;-57
2023/06/13 06:23:42;;;;;;;3.30;2.45;;;;;;;;;;5072509;28;20468;-57
2023/06/13 06:26:09;;;;;;;3.15;2.50;;;;;;;;;;5073023;28;20236;-57
2023/06/13 06:28:35;;;;;;;4.35;2.20;;;;;;;;;;5074718;28;20224;-58
2023/06/13 06:31:02;;;;;;;3.58;2.20;;;;;;;;;;5074153;28;20251;-57
2023/06/13 06:33:28;;;;;;;3.28;2.65;;;;;;;;;;5073922;28;20452;-57
2023/06/13 06:35:56;;;;;;;2.90;2.70;;;;;;;;;;5073563;28;20520;-56
2023/06/13 06:38:22;;;;;;;2.95;2.08;;;;;;;;;;5073511;28;20609;-57
2023/06/13 06:40:48;;;;;;;3.20;2.20;;;;;;;;;;5078059;28;20212;-58
2023/06/13 06:43:15;;;;;;;2.75;1.70;;;;;;;;;;5077924;28;20266;-58
2023/06/13 06:45:41;;;;;;;2.95;2.60;;;;;;;;;;5077708;28;20242;-58
2023/06/13 06:48:07;;;;;;;2.55;2.42;;;;;;;;;;5077906;28;20201;-58
2023/06/13 06:50:33;;;;;;;8.20;2.70;;;;;;;;;;5069191;28;20258;-57
2023/06/13 06:53:01;;;;;;;4.22;1.98;;;;;;;;;;5077387;28;20262;-58
2023/06/13 06:55:27;;;;;;;6.97;2.85;;;;;;;;;;5077349;28;20205;-58
2023/06/13 06:57:54;;;;;;;8.32;2.67;;;;;;;;;;5076875;28;20315;-58
2023/06/13 07:00:20;;;;;;;5.60;2.83;;;;;;;;;;5076858;28;20216;-58
2023/06/13 07:02:46;;;;;;;6.53;2.60;;;;;;;;;;5077362;28;20216;-58
2023/06/13 07:05:15;;;;;;;2.53;2.33;;;;;;;;;;5076998;28;20212;-58
2023/06/13 07:07:42;;;;;;;7.97;2.65;;;;;;;;;;5075929;28;20212;-58
2023/06/13 07:10:09;;;;;;;3.70;2.38;;;;;;;;;;5077538;28;20204;-56
2023/06/13 07:12:36;;;;;;;6.68;2.80;;;;;;;;;;5075090;28;20244;-58
2023/06/13 07:15:03;;;;;;;6.30;2.25;;;;;;;;;;5075157;28;20207;-56
2023/06/13 07:17:30;;;;;;;2.42;2.28;;;;;;;;;;5075266;28;20235;-56
2023/06/13 07:19:56;;;;;;;7.40;2.40;;;;;;;;;;5075007;28;20212;-58
2023/06/13 07:22:22;;;;;;;3.53;2.80;;;;;;;;;;5075604;28;20561;-56
2023/06/13 07:24:48;;;;;;;3.25;2.42;;;;;;;;;;5074899;28;20208;-57
2023/06/13 07:27:17;;;;;;;5.43;2.28;;;;;;;;;;5076155;28;20224;-56
2023/06/13 07:29:44;;;;;;;11.73;2.47;;;;;;;;;;5076967;28;20473;-58
2023/06/13 07:32:10;;;;;;;4.13;2.30;;;;;;;;;;5071874;28;20291;-57
2023/06/13 07:34:36;;;;;;;4.57;2.50;;;;;;;;;;5077400;28;20208;-58
2023/06/13 07:37:03;;;;;;;3.10;2.50;;;;;;;;;;5076682;28;20235;-58
2023/06/13 07:39:30;;;;;;;5.30;2.13;;;;;;;;;;5077261;28;20208;-57
2023/06/13 07:41:56;;;;;;;3.05;2.35;;;;;;;;;;5077122;28;20220;-58
2023/06/13 07:44:23;;;;;;;2.67;2.40;;;;;;;;;;5077183;28;20208;-58
2023/06/13 07:46:50;;;;;;;3.13;2.80;;;;;;;;;;5077070;28;20544;-58
2023/06/13 07:49:16;;;;;;;5.78;2.97;;;;;;;;;;5076086;28;20223;-58
2023/06/13 07:51:42;;;;;;;3.03;2.70;;;;;;;;;;5076097;28;20212;-57
2023/06/13 07:54:08;;;;;;;4.55;2.50;;;;;;;;;;5077213;28;20215;-57
2023/06/13 07:56:35;;;;;;;2.85;2.65;;;;;;;;;;5076231;28;20208;-58
2023/06/13 07:59:01;;;;;;;2.97;2.75;;;;;;;;;;5076506;28;20235;-57
2023/06/13 08:01:28;;;;;;;3.13;2.15;;;;;;;;;;5076824;28;20220;-57
2023/06/13 08:03:55;;;;;;;4.30;2.45;;;;;;;;;;5076915;28;20539;-56
2023/06/13 08:06:21;;;;;;;7.60;2.63;;;;;;;;;;5076342;28;20208;-56
2023/06/13 08:08:47;;;;;;;5.05;2.80;;;;;;;;;;5075181;28;20219;-57
2023/06/13 08:11:13;;;;;;;5.68;2.85;;;;;;;;;;5076760;28;20208;-57
2023/06/13 08:13:40;;;;;;;6.50;2.67;;;;;;;;;;5076356;28;20231;-57
2023/06/13 08:16:06;;;;;;;7.65;3.03;;;;;;;;;;5075800;28;20226;-56
2023/06/13 08:18:33;;;;;;;3.13;2.90;;;;;;;;;;5076554;28;20232;-57
2023/06/13 08:21:00;;;;;;;5.03;3.30;;;;;;;;;;5074072;28;20251;-57
2023/06/13 08:23:26;;;;;;;3.85;3.08;;;;;;;;;;5074102;28;20201;-57
2023/06/13 08:25:52;;;;;;;6.55;2.40;;;;;;;;;;5076473;28;20216;-56
2023/06/13 08:28:19;;;;;;;2.42;2.28;;;;;;;;;;5075383;28;20220;-56
2023/06/13 08:30:46;;;;;;;3.28;2.50;;;;;;;;;;5076783;28;20216;-57
2023/06/13 08:33:13;;;;;;;4.85;2.53;;;;;;;;;;5076680;28;20503;-57
2023/06/13 08:35:40;;;;;;;4.00;2.60;;;;;;;;;;5076298;28;20307;-56
2023/06/13 08:38:07;;;;;;;12.45;3.08;;;;;;;;;;5076205;28;20265;-57
2023/06/13 08:40:33;;;;;;;7.60;3.08;;;;;;;;;;5075818;28;20258;-57
2023/06/13 08:43:00;;;;;;;5.07;3.25;;;;;;;;;;5076500;28;20216;-57
2023/06/13 08:45:26;;;;;;;2.72;2.53;;;;;;;;;;5075904;28;20214;-57
2023/06/13 08:47:53;;;;;;;5.00;2.97;;;;;;;;;;5075740;28;20204;-57
2023/06/13 08:50:24;;;;;;;7.75;2.90;;;;;;;;;;5075999;28;20466;-58
2023/06/13 08:52:52;;;;;;;6.68;2.65;;;;;;;;;;5075596;28;20213;-56
2023/06/13 08:55:22;;;;;;;7.60;4.03;;;;;;;;;;5076170;28;20209;-57
2023/06/13 08:57:49;;;;;;;2.83;2.72;;;;;;;;;;5075260;28;20223;-57
2023/06/13 09:00:16;;;;;;;2.92;2.63;;;;;;;;;;5074972;28;20205;-57
2023/06/13 09:02:45;;;;;;;5.30;2.50;;;;;;;;;;5076013;28;20200;-57
2023/06/13 09:05:13;;;;;;;2.30;2.20;;;;;;;;;;5075699;28;20272;-57
2023/06/13 09:07:40;;;;;;;5.63;3.00;;;;;;;;;;5075253;28;20208;-58
2023/06/13 09:10:10;;;;;;;6.50;2.40;;;;;;;;;;5075118;28;20439;-58
2023/06/13 09:12:36;;;;;;;4.63;2.78;;;;;;;;;;5075292;28;20409;-58
2023/06/13 09:15:03;;;;;;;3.88;2.80;;;;;;;;;;5075826;28;20212;-57
2023/06/13 09:17:29;;;;;;;2.65;2.50;;;;;;;;;;5076026;28;20232;-57
2023/06/13 09:19:56;;;;;;;6.18;2.72;;;;;;;;;;5075370;28;20208;-57
2023/06/13 09:22:22;;;;;;;4.35;2.50;;;;;;;;;;5075450;28;20231;-57
2023/06/13 09:24:48;;;;;;;4.40;2.60;;;;;;;;;;5076079;28;20219;-57
2023/06/13 09:27:16;;;;;;;5.00;2.63;;;;;;;;;;5074961;28;20269;-57
2023/06/13 09:29:42;;;;;;;2.63;2.42;;;;;;;;;;5075724;28;20212;-57
2023/06/13 09:32:10;;;;;;;7.65;2.67;;;;;;;;;;5076017;28;20211;-57
2023/06/13 09:34:37;;;;;;;2.65;2.45;;;;;;;;;;5075919;28;20433;-57
2023/06/13 09:37:03;;;;;;;2.80;2.60;;;;;;;;;;5074724;28;20208;-57
2023/06/13 09:39:31;;;;;;;2.97;2.78;;;;;;;;;;5074948;28;20231;-56
2023/06/13 09:41:58;;;;;;;4.07;2.22;;;;;;;;;;5068184;28;20230;-57
2023/06/13 09:44:26;;;;;;;7.57;2.50;;;;;;;;;;5075314;28;20231;-59
2023/06/13 09:46:53;;;;;;;2.30;2.10;;;;;;;;;;5075694;28;20222;-57
2023/06/13 09:49:19;;;;;;;2.78;2.30;;;;;;;;;;5075581;28;20204;-57
2023/06/13 09:51:46;;;;;;;3.10;2.65;;;;;;;;;;5075684;28;20223;-56
2023/06/13 09:54:13;;;;;;;8.63;2.80;;;;;;;;;;5075610;28;20516;-57
2023/06/13 09:56:40;;;;;;;3.20;2.38;;;;;;;;;;5074997;28;20514;-57
2023/06/13 09:59:07;;;;;;;4.38;2.30;;;;;;;;;;5075051;28;20411;-57
2023/06/13 10:01:34;;;;;;;5.68;2.60;;;;;;;;;;5075607;28;20204;-56
2023/06/13 10:04:01;;;;;;;6.43;2.83;;;;;;;;;;5072548;28;20567;-58
2023/06/13 10:06:29;;;;;;;3.10;2.50;;;;;;;;;;5075397;28;20215;-58
2023/06/13 10:08:55;;;;;;;2.40;2.38;;;;;;;;;;5074306;28;20257;-58
2023/06/13 10:11:23;;;;;;;3.25;2.53;;;;;;;;;;5074488;28;20208;-58
2023/06/13 10:13:54;;;;;;;2.30;2.10;;;;;;;;;;5075267;28;20212;-58
2023/06/13 10:16:22;;;;;;;2.67;2.40;;;;;;;;;;5078801;28;20215;-56
2023/06/13 10:18:53;;;;;;;4.43;2.33;;;;;;;;;;5078504;28;20227;-60
2023/06/13 10:21:19;;;;;;;2.88;2.15;;;;;;;;;;5079197;28;20269;-57
2023/06/13 10:23:49;;;;;;;3.30;2.60;;;;;;;;;;5078587;28;20212;-59
2023/06/13 10:26:18;;;;;;;4.43;2.50;;;;;;;;;;5078726;28;20207;-56
2023/06/13 10:28:57;;;;;;;2.42;2.33;;;;;;;;;;5078537;28;20296;-57
2023/06/13 10:31:28;;;;;;;5.22;2.60;;;;;;;;;;5079132;28;20214;-57
2023/06/13 10:34:01;;;;;;;6.47;2.65;;;;;;;;;;5079303;28;20218;-58
2023/06/13 10:36:35;;;;;;;4.68;2.72;;;;;;;;;;5078796;28;20377;-58
2023/06/13 10:39:28;;;;;;;3.50;2.50;;;;;;;;;;5076332;28;20215;-57
2023/06/13 10:41:58;;;;;;;2.58;2.38;;;;;;;;;;5078655;28;20384;-57
2023/06/13 10:44:27;;;;;;;5.55;2.35;;;;;;;;;;5078605;28;20211;-58
2023/06/13 10:46:53;;;;;;;8.27;2.60;;;;;;;;;;5078300;28;21130;-58
2023/06/13 10:49:21;;;;;;;4.72;2.35;;;;;;;;;;5078931;28;20204;-60
2023/06/13 10:51:48;;;;;;;3.90;2.85;;;;;;;;;;5078674;28;20235;-60
2023/06/13 10:54:15;;;;;;;4.07;2.65;;;;;;;;;;5078133;28;20279;-60
2023/06/13 10:56:43;;;;;;;3.78;2.47;;;;;;;;;;5077872;28;20215;-60
2023/06/13 10:59:10;;;;;;;5.32;2.45;;;;;;;;;;5078257;28;20224;-60
2023/06/13 11:01:37;;;;;;;5.28;2.40;;;;;;;;;;5077823;28;20539;-58
2023/06/13 11:04:11;;;;;;;5.18;2.47;;;;;;;;;;5070425;28;20212;-58
2023/06/13 11:06:39;;;;;;;3.63;2.63;;;;;;;;;;5077823;28;20253;-58
2023/06/13 11:09:09;;;;;;;2.90;2.80;;;;;;;;;;5077070;28;20481;-58
2023/06/13 11:11:39;;;;;;;5.78;2.38;;;;;;;;;;5077869;28;20562;-58
2023/06/13 11:14:07;;;;;;;2.72;2.58;;;;;;;;;;5073541;28;20231;-58
2023/06/13 11:16:37;;;;;;;2.53;2.33;;;;;;;;;;5078502;28;20212;-58
2023/06/13 11:19:05;;;;;;;3.17;2.50;;;;;;;;;;5075679;28;20220;-58
2023/06/13 11:21:32;;;;;;;9.52;2.53;;;;;;;;;;5077942;28;20208;-59
2023/06/13 11:23:59;;;;;;;5.85;2.33;;;;;;;;;;5078022;28;20211;-58
2023/06/13 11:26:26;;;;;;;7.28;2.78;;;;;;;;;;5076296;28;20211;-58
2023/06/13 11:28:52;;;;;;;4.13;2.33;;;;;;;;;;5078165;28;20224;-57
2023/06/13 11:31:19;;;;;;;10.25;2.70;;;;;;;;;;5077727;28;20404;-58
2023/06/13 11:33:46;;;;;;;2.22;2.05;;;;;;;;;;5078341;28;20543;-58
2023/06/13 11:36:13;;;;;;;9.02;2.83;;;;;;;;;;5078273;28;20208;-58
2023/06/13 11:38:41;;;;;;;6.50;2.72;;;;;;;;;;5077186;28;20216;-58
2023/06/13 11:41:09;;;;;;;4.72;2.72;;;;;;;;;;5077211;28;20204;-59
2023/06/13 11:43:36;;;;;;;3.05;2.50;;;;;;;;;;5076114;28;20208;-58
2023/06/13 11:46:03;;;;;;;5.53;2.60;;;;;;;;;;5077177;28;20208;-58
2023/06/13 11:48:30;;;;;;;3.97;2.55;;;;;;;;;;5077676;28;20204;-58
2023/06/13 11:51:09;;;;;;;4.00;2.55;;;;;;;;;;5077236;28;20212;-58
2023/06/13 11:53:46;;;;;;;7.25;2.55;;;;;;;;;;5077135;28;20208;-58
2023/06/13 11:56:15;;;;;;;3.95;2.40;;;;;;;;;;5071865;28;20207;-58
2023/06/13 11:58:41;;;;;;;6.75;2.38;;;;;;;;;;5076579;28;20216;-58
2023/06/13 12:01:08;;;;;;;6.63;2.72;;;;;;;;;;5077012;28;20211;-56
2023/06/13 12:03:37;;;;;;;4.47;2.70;;;;;;;;;;5077537;28;20216;-58
2023/06/13 12:06:06;;;;;;;4.13;2.67;;;;;;;;;;5077311;28;20203;-58
2023/06/13 12:08:33;;;;;;;4.43;2.63;;;;;;;;;;5076482;28;20400;-58
2023/06/13 12:11:00;;;;;;;3.00;2.50;;;;;;;;;;5076559;28;20273;-58
2023/06/13 12:13:28;;;;;;;4.25;2.67;;;;;;;;;;5076373;28;20230;-58
2023/06/13 12:15:54;;;;;;;4.50;3.40;;;;;;;;;;5077127;28;20233;-58
2023/06/13 12:18:20;;;;;;;9.05;3.05;;;;;;;;;;5076662;28;20406;-58
2023/06/13 12:20:47;;;;;;;3.08;2.78;;;;;;;;;;5076665;28;20515;-59
2023/06/13 12:23:14;;;;;;;2.60;2.40;;;;;;;;;;5076635;28;20548;-58
2023/06/13 12:25:40;;;;;;;3.00;2.80;;;;;;;;;;5076859;28;20212;-58
2023/06/13 12:28:12;;;;;;;3.03;2.75;;;;;;;;;;5075040;28;20223;-58
2023/06/13 12:30:41;;;;;;;5.45;2.50;;;;;;;;;;5076522;28;20220;-57
2023/06/13 12:33:08;;;;;;;4.03;2.38;;;;;;;;;;5074339;28;20574;-58
2023/06/13 12:35:34;;;;;;;2.85;2.65;;;;;;;;;;5076227;28;20203;-56
2023/06/13 12:38:01;;;;;;;3.97;3.08;;;;;;;;;;5074943;28;20427;-58
2023/06/13 12:40:34;;;;;;;4.95;2.70;;;;;;;;;;5075480;28;20246;-58
2023/06/13 12:43:02;;;;;;;4.15;2.70;;;;;;;;;;5076192;28;20266;-58
2023/06/13 12:45:28;;;;;;;2.75;2.53;;;;;;;;;;5075637;28;20208;-58
2023/06/13 12:47:56;;;;;;;3.33;3.03;;;;;;;;;;5076179;28;20294;-57
2023/06/13 12:50:23;;;;;;;3.30;3.10;;;;;;;;;;5076181;28;20211;-57
2023/06/13 12:52:49;;;;;;;9.23;2.78;;;;;;;;;;5076166;28;20531;-56
2023/06/13 12:55:19;;;;;;;4.28;3.15;;;;;;;;;;5076113;28;20213;-57
2023/06/13 12:57:45;;;;;;;6.72;2.97;;;;;;;;;;5075017;28;20212;-57
2023/06/13 13:00:19;;;;;;;3.35;2.83;;;;;;;;;;5076347;28;20300;-57
2023/06/13 13:02:46;;;;;;;4.72;2.95;;;;;;;;;;5076064;28;20330;-57
2023/06/13 13:05:14;;;;;;;2.95;2.60;;;;;;;;;;5075647;28;20215;-57
2023/06/13 13:07:40;;;;;;;6.28;3.28;;;;;;;;;;5075594;28;20279;-57
2023/06/13 13:10:08;;;;;;;7.88;2.92;;;;;;;;;;5075341;28;20210;-73
2023/06/13 13:12:35;;;;;;;4.90;2.80;;;;;;;;;;5076215;28;20208;-73
2023/06/13 13:15:01;;;;;;;3.80;2.60;;;;;;;;;;5076477;28;20296;-73
2023/06/13 13:17:27;;;;;;;3.95;2.90;;;;;;;;;;5076052;28;20211;-73
2023/06/13 13:19:53;;;;;;;3.20;2.90;;;;;;;;;;5076292;28;20370;-73
2023/06/13 13:22:21;;;;;;;4.70;3.30;;;;;;;;;;5076109;28;20566;-73
2023/06/13 13:24:47;;;;;;;4.90;3.22;;;;;;;;;;5076280;28;20218;-74
2023/06/13 13:27:14;;;;;;;4.70;3.03;;;;;;;;;;5075229;28;20230;-73
2023/06/13 13:29:40;;;;;;;3.38;3.08;;;;;;;;;;5075624;28;20520;-74
2023/06/13 13:32:07;;;;;;;4.20;2.67;;;;;;;;;;5076068;28;20219;-74
2023/06/13 13:34:34;;;;;;;7.32;2.97;;;;;;;;;;5075314;28;20241;-74
2023/06/13 13:37:00;;;;;;;3.90;2.65;;;;;;;;;;5075405;28;20284;-75
2023/06/13 13:39:28;;;;;;;5.72;3.08;;;;;;;;;;5075963;28;20238;-74
2023/06/13 13:41:54;;;;;;;5.55;3.33;;;;;;;;;;5076211;28;20230;-74
2023/06/13 13:44:21;;;;;;;3.25;3.05;;;;;;;;;;5075655;28;20299;-74
2023/06/13 13:46:47;;;;;;;5.28;3.42;;;;;;;;;;5075997;28;20235;-74
2023/06/13 13:49:13;;;;;;;3.72;3.22;;;;;;;;;;5075239;28;20226;-75
2023/06/13 13:51:39;;;;;;;3.03;2.92;;;;;;;;;;5076049;28;20214;-74
2023/06/13 13:54:06;;;;;;;4.20;2.88;;;;;;;;;;5075868;28;20257;-74
2023/06/13 13:56:34;;;;;;;6.00;2.78;;;;;;;;;;5075358;28;20208;-74
2023/06/13 13:59:00;;;;;;;3.33;3.03;;;;;;;;;;5075212;28;20429;-74
2023/06/13 14:01:27;;;;;;;3.30;3.00;;;;;;;;;;5076242;28;20477;-74
2023/06/13 14:03:54;;;;;;;7.97;3.05;;;;;;;;;;5076027;28;20412;-74
2023/06/13 14:06:20;;;;;;;8.30;3.30;;;;;;;;;;5075949;28;20367;-74
2023/06/13 14:08:46;;;;;;;4.15;3.25;;;;;;;;;;5075489;28;20230;-74
2023/06/13 14:11:14;;;;;;;3.38;3.10;;;;;;;;;;5075781;28;20211;-74
2023/06/13 14:13:42;;;;;;;3.40;3.10;;;;;;;;;;5075089;28;20377;-74
2023/06/13 14:16:08;;;;;;;4.68;3.20;;;;;;;;;;5075497;28;20617;-74
2023/06/13 14:18:35;;;;;;;3.55;3.25;;;;;;;;;;5075676;28;20443;-74
2023/06/13 14:21:02;;;;;;;2.97;2.67;;;;;;;;;;5074867;28;20502;-75
2023/06/13 14:23:28;;;;;;;4.07;2.58;;;;;;;;;;5075094;28;20569;-75
2023/06/13 14:25:54;;;;;;;5.07;3.10;;;;;;;;;;5075805;28;20199;-74
2023/06/13 14:28:20;;;;;;;4.25;3.53;;;;;;;;;;5074255;28;20224;-74
2023/06/13 14:30:48;;;;;;;3.83;3.17;;;;;;;;;;5075168;28;20216;-74
2023/06/13 14:33:16;;;;;;;4.85;2.97;;;;;;;;;;5069212;28;20208;-74
2023/06/13 14:35:43;;;;;;;3.80;2.75;;;;;;;;;;5075272;28;20247;-74
2023/06/13 14:38:09;;;;;;;6.03;3.22;;;;;;;;;;5075309;28;20258;-74
2023/06/13 14:40:35;;;;;;;6.40;2.97;;;;;;;;;;5075320;28;20314;-74
2023/06/13 14:43:02;;;;;;;5.50;3.00;;;;;;;;;;5074435;28;20220;-74